Terminal Aerodrome Forecast
Issued by NWS St Louis, MO

Home | Current Version | Previous Version | Text Only | Print | Product List | Glossary On
Versions: 1 2 3 4 5 6 7 8 9 10 11 12 13 14 15 16 17 18 19 20 21 22 23 24 25
000
FTUS43 KLSX 141100
TAFSTL
TAF
KSTL 141120Z 1412/1518 27005KT P6SM SCT060
      TEMPO 1412/1414 4SM BR BKN005
     FM141800 30008KT P6SM VCTS SCT040CB BKN100
     FM142100 32012KT P6SM SCT050
     FM150200 33008KT P6SM SKC=

USA.gov is the U.S. government's official web portal to all federal, state and local government web resources and services.